Hazard, Nebraska
Current Conditions -  °F | °C
As of 9:15 PM on Friday 21 Nov 2014 (Local Time) from KEAR Reporting Station
Overcast Overcast  
Wind Chill: 26°   Ceiling: 700
Heat Index: 34°   Visibility: 10mi
Dew Point: 27°   Wind: 10mph
Humidity: 75%   Direction: 160°SSE
Pressure: 29.96"   Gusts: NA
Location:  41.09°N, 99.08°W
Report Text: KEAR 220315Z 16009KT 10SM OVC007 01/M03 A2996 RMK AO1
Loading
Personal Weather Stations






























Interactive Weather Map New forecast layout! Learn more

10-Day Weather Forecast

Advertisements
Track Severe Weather on mobile